createdAt,value
2022-12-04T00:00:39.707Z,0.19
2022-12-04T00:03:24.592Z,0.25
2022-12-04T00:06:12.922Z,0.15
2022-12-04T00:08:57.910Z,0.17
2022-12-04T00:11:42.874Z,0.08
2022-12-04T00:14:28.314Z,0.03
2022-12-04T00:17:13.220Z,0.11
2022-12-04T00:19:58.039Z,0.08
2022-12-04T00:22:42.972Z,0.13
2022-12-04T00:25:30.117Z,0.10
2022-12-04T00:28:19.028Z,0.07
2022-12-04T00:31:09.854Z,0.06
2022-12-04T00:33:55.225Z,0.11
2022-12-04T00:36:40.446Z,0.17
2022-12-04T00:39:25.634Z,0.16
2022-12-04T00:42:10.483Z,0.11
2022-12-04T00:44:55.623Z,0.21
2022-12-04T00:47:40.511Z,0.24
2022-12-04T00:50:25.364Z,0.29
2022-12-04T00:53:10.500Z,0.24
2022-12-04T00:55:56.021Z,0.12
2022-12-04T00:58:42.791Z,0.07
2022-12-04T01:01:29.343Z,0.11
2022-12-04T01:04:14.674Z,0.09
2022-12-04T01:07:04.735Z,0.08
2022-12-04T01:09:50.225Z,0.10
2022-12-04T01:12:35.192Z,0.15
2022-12-04T01:15:21.105Z,0.11
2022-12-04T01:18:06.712Z,0.04
2022-12-04T01:20:52.349Z,0.15
2022-12-04T01:23:37.428Z,0.06
2022-12-04T01:26:22.258Z,0.05
2022-12-04T01:29:07.465Z,-0.01
2022-12-04T01:31:52.924Z,0.06
2022-12-04T01:34:38.283Z,0.15
2022-12-04T01:37:23.661Z,0.14
2022-12-04T01:40:14.101Z,0.15
2022-12-04T01:42:59.832Z,0.17
2022-12-04T01:45:48.463Z,0.20
2022-12-04T01:48:38.065Z,0.14
2022-12-04T01:51:25.033Z,0.11
2022-12-04T01:54:39.738Z,0.05
2022-12-04T01:57:27.819Z,0.19
2022-12-04T02:00:15.596Z,0.25
2022-12-04T02:03:01.462Z,0.21
2022-12-04T02:05:46.506Z,0.08
2022-12-04T02:08:32.644Z,0.12
2022-12-04T02:11:44.043Z,0.12
2022-12-04T02:14:59.202Z,0.09
2022-12-04T02:17:59.400Z,0.05
2022-12-04T02:20:56.617Z,-0.04
2022-12-04T02:23:41.981Z,-0.03
2022-12-04T02:26:30.048Z,-0.17
2022-12-04T02:29:32.840Z,-0.12
2022-12-04T02:32:51.313Z,-0.10
2022-12-04T02:35:46.027Z,-0.05
2022-12-04T02:38:42.808Z,-0.07
2022-12-04T02:41:34.994Z,-0.14
2022-12-04T02:44:34.023Z,-0.14
2022-12-04T02:47:23.704Z,-0.14
2022-12-04T02:50:13.463Z,-0.09
2022-12-04T02:53:07.465Z,-0.10
2022-12-04T02:55:59.228Z,-0.11
2022-12-04T02:58:53.169Z,-0.11
2022-12-04T03:01:43.530Z,-0.08
2022-12-04T03:04:29.880Z,-0.10
2022-12-04T03:07:19.483Z,-0.07
2022-12-04T03:10:10.692Z,-0.07
2022-12-04T03:13:03.273Z,-0.09
2022-12-04T03:15:54.402Z,-0.04
2022-12-04T03:18:43.470Z,-0.05
2022-12-04T03:21:32.543Z,-0.03
2022-12-04T03:24:24.448Z,-0.06
2022-12-04T03:27:21.636Z,-0.05
2022-12-04T03:30:10.708Z,-0.05
2022-12-04T03:33:06.759Z,-0.05
2022-12-04T03:36:25.315Z,-0.04
2022-12-04T03:39:16.565Z,-0.03
2022-12-04T03:42:27.956Z,0.04
2022-12-04T03:45:22.191Z,-0.08
2022-12-04T03:48:22.903Z,-0.06
2022-12-04T03:51:13.775Z,-0.06
2022-12-04T03:54:07.772Z,-0.02
2022-12-04T03:56:58.328Z,0.02
2022-12-04T03:59:55.394Z,-0.05
2022-12-04T04:02:47.925Z,0.00
2022-12-04T04:05:34.917Z,0.01
2022-12-04T04:08:26.784Z,-0.04
2022-12-04T04:11:20.904Z,-0.09
2022-12-04T04:14:13.208Z,-0.11
2022-12-04T04:17:06.496Z,-0.14
2022-12-04T04:20:00.824Z,-0.11
2022-12-04T04:22:54.452Z,-0.10
2022-12-04T04:25:43.291Z,-0.03
2022-12-04T04:28:31.379Z,-0.08
2022-12-04T04:31:31.573Z,-0.04
2022-12-04T04:34:34.762Z,0.07
2022-12-04T04:37:25.976Z,0.12
2022-12-04T04:40:16.574Z,0.13
2022-12-04T04:43:17.108Z,-0.04
2022-12-04T04:46:11.321Z,0.04
2022-12-04T04:49:00.656Z,0.06
2022-12-04T04:51:46.359Z,0.03
2022-12-04T04:54:33.770Z,0.03
2022-12-04T04:57:30.714Z,0.09
2022-12-04T05:00:20.071Z,0.02
2022-12-04T05:03:05.995Z,0.14
2022-12-04T05:05:51.151Z,0.06
2022-12-04T05:08:36.526Z,0.12
2022-12-04T05:11:21.656Z,0.04
2022-12-04T05:14:06.604Z,0.10
2022-12-04T05:16:51.408Z,0.16
2022-12-04T05:19:36.295Z,0.10
2022-12-04T05:22:26.891Z,0.06
2022-12-04T05:25:12.078Z,0.17
2022-12-04T05:27:57.051Z,0.16
2022-12-04T05:30:42.115Z,0.26
2022-12-04T05:33:28.191Z,0.14
2022-12-04T05:36:13.407Z,0.15
2022-12-04T05:38:58.801Z,0.22
2022-12-04T05:41:44.234Z,0.14
2022-12-04T05:44:29.255Z,0.16
2022-12-04T05:47:14.524Z,0.20
2022-12-04T05:49:59.301Z,0.19
2022-12-04T05:52:44.742Z,0.20
2022-12-04T05:55:29.564Z,0.26
2022-12-04T05:58:14.523Z,0.19
2022-12-04T06:00:59.402Z,0.24
2022-12-04T06:03:44.804Z,0.22
2022-12-04T06:06:30.051Z,0.19
2022-12-04T06:09:14.901Z,0.18
2022-12-04T06:11:59.885Z,0.21
2022-12-04T06:14:44.626Z,0.26
2022-12-04T06:17:29.544Z,0.33
2022-12-04T06:20:15.019Z,0.27
2022-12-04T06:23:00.401Z,0.21
2022-12-04T06:25:45.646Z,0.25
2022-12-04T06:28:30.597Z,0.32
2022-12-04T06:31:17.107Z,0.33
2022-12-04T06:34:02.091Z,0.40
2022-12-04T06:36:47.293Z,0.35
2022-12-04T06:39:32.142Z,0.39
2022-12-04T06:42:17.218Z,0.43
2022-12-04T06:45:02.163Z,0.31
2022-12-04T06:47:47.570Z,0.29
2022-12-04T06:50:32.316Z,0.29
2022-12-04T06:53:17.756Z,0.30
2022-12-04T06:56:06.387Z,0.28
2022-12-04T06:58:55.274Z,0.34
2022-12-04T07:01:40.469Z,0.30
2022-12-04T07:04:25.755Z,0.38
2022-12-04T07:07:10.768Z,0.37
2022-12-04T07:09:56.018Z,0.34
2022-12-04T07:12:41.349Z,0.40
2022-12-04T07:15:26.267Z,0.39
2022-12-04T07:18:11.108Z,0.39
2022-12-04T07:20:56.243Z,0.40
2022-12-04T07:23:41.311Z,0.46
2022-12-04T07:26:28.714Z,0.49
2022-12-04T07:29:13.785Z,0.46
2022-12-04T07:31:59.074Z,0.54
2022-12-04T07:34:44.359Z,0.43
2022-12-04T07:37:29.128Z,0.51
2022-12-04T07:40:14.237Z,0.54
2022-12-04T07:42:59.257Z,0.55
2022-12-04T07:45:44.221Z,0.62
2022-12-04T07:48:33.345Z,0.59
2022-12-04T07:51:21.490Z,0.54
2022-12-04T07:54:06.767Z,0.53
2022-12-04T07:56:51.674Z,0.65
2022-12-04T07:59:36.695Z,0.61
2022-12-04T08:02:21.879Z,0.64
2022-12-04T08:05:07.252Z,0.71
2022-12-04T08:07:53.226Z,0.64
2022-12-04T08:10:41.726Z,0.72
2022-12-04T08:13:26.781Z,0.70
2022-12-04T08:16:12.899Z,0.74
2022-12-04T08:18:58.318Z,0.77
2022-12-04T08:21:43.579Z,0.82
2022-12-04T08:24:28.503Z,0.75
2022-12-04T08:27:14.158Z,0.74
2022-12-04T08:29:59.545Z,0.78
2022-12-04T08:32:44.816Z,0.77
2022-12-04T08:35:29.748Z,0.71
2022-12-04T08:38:14.605Z,0.67
2022-12-04T08:41:01.964Z,0.75
2022-12-04T08:43:47.386Z,0.77
2022-12-04T08:46:33.534Z,0.80
2022-12-04T08:49:19.068Z,0.87
2022-12-04T08:52:04.361Z,0.81
2022-12-04T08:54:50.591Z,0.74
2022-12-04T08:57:35.729Z,0.89
2022-12-04T09:00:20.836Z,0.92
2022-12-04T09:03:06.156Z,0.84
2022-12-04T09:05:51.278Z,0.91
2022-12-04T09:08:37.521Z,0.91
2022-12-04T09:11:25.007Z,0.84
2022-12-04T09:14:09.931Z,0.89
2022-12-04T09:16:55.001Z,0.87
2022-12-04T09:19:41.451Z,0.93
2022-12-04T09:22:36.112Z,0.88
2022-12-04T09:25:31.695Z,0.96
2022-12-04T09:28:17.100Z,0.96
2022-12-04T09:31:04.645Z,1.01
2022-12-04T09:33:50.043Z,1.01
2022-12-04T09:36:35.056Z,1.01
2022-12-04T09:39:19.932Z,1.05
2022-12-04T09:42:45.816Z,1.04
2022-12-04T09:45:42.436Z,1.11
2022-12-04T09:48:34.216Z,1.07
2022-12-04T09:51:22.881Z,1.17
2022-12-04T09:54:15.270Z,1.24
2022-12-04T09:57:05.806Z,1.22
2022-12-04T09:59:53.043Z,1.30
2022-12-04T10:02:41.293Z,1.30
2022-12-04T10:05:42.204Z,1.32
2022-12-04T10:08:31.659Z,1.33
2022-12-04T10:11:32.072Z,1.25
2022-12-04T10:15:08.545Z,1.31
2022-12-04T10:18:06.379Z,1.29
2022-12-04T10:20:58.093Z,1.26
2022-12-04T10:23:46.305Z,1.26
2022-12-04T10:26:41.325Z,1.38
2022-12-04T10:29:30.855Z,1.33
2022-12-04T10:32:23.168Z,1.36
2022-12-04T10:35:20.675Z,1.38
2022-12-04T10:38:28.099Z,1.28
2022-12-04T10:41:28.496Z,1.26
2022-12-04T10:44:16.024Z,1.31
2022-12-04T10:47:03.854Z,1.33
2022-12-04T10:49:58.708Z,1.30
2022-12-04T10:52:44.013Z,1.36
2022-12-04T10:55:34.555Z,1.44
2022-12-04T10:58:19.748Z,1.46
2022-12-04T11:01:08.315Z,1.42
2022-12-04T11:04:07.356Z,1.46
2022-12-04T11:07:15.804Z,1.45
2022-12-04T11:10:06.957Z,1.42
2022-12-04T11:13:01.032Z,1.47
2022-12-04T11:15:49.684Z,1.49
2022-12-04T11:18:47.664Z,1.48
2022-12-04T11:21:32.755Z,1.48
2022-12-04T11:24:26.266Z,1.44
2022-12-04T11:27:25.981Z,1.49
2022-12-04T11:30:18.885Z,1.40
2022-12-04T11:33:08.196Z,1.29
2022-12-04T11:35:57.079Z,1.26
2022-12-04T11:38:41.898Z,1.30
2022-12-04T11:41:30.352Z,1.43
2022-12-04T11:44:26.780Z,1.23
2022-12-04T11:47:18.336Z,1.29
2022-12-04T11:50:17.761Z,1.30
2022-12-04T11:53:14.813Z,1.19
2022-12-04T11:56:12.893Z,1.22
2022-12-04T11:59:00.790Z,1.14
2022-12-04T12:02:12.079Z,1.21
2022-12-04T12:05:08.437Z,1.20
2022-12-04T12:08:14.221Z,1.28
2022-12-04T12:11:23.615Z,1.42
2022-12-04T12:14:56.966Z,1.19
2022-12-04T12:18:05.064Z,1.14
2022-12-04T12:21:08.007Z,1.22
2022-12-04T12:24:09.265Z,1.16
2022-12-04T12:27:15.580Z,1.23
2022-12-04T12:30:14.410Z,1.15
2022-12-04T12:33:19.816Z,1.17
2022-12-04T12:36:09.629Z,1.31
2022-12-04T12:39:00.832Z,1.31
2022-12-04T12:41:53.042Z,1.37
2022-12-04T12:44:57.323Z,1.30
2022-12-04T12:47:46.237Z,1.36
2022-12-04T12:50:38.910Z,1.34
2022-12-04T12:53:28.994Z,1.41
2022-12-04T12:56:14.272Z,1.43
2022-12-04T12:59:03.488Z,1.44
2022-12-04T13:02:06.537Z,1.32
2022-12-04T13:04:53.671Z,1.30
2022-12-04T13:07:57.357Z,1.37
2022-12-04T13:10:47.833Z,1.48
2022-12-04T13:13:36.558Z,1.24
2022-12-04T13:16:26.721Z,1.37
2022-12-04T13:19:24.683Z,1.31
2022-12-04T13:22:26.709Z,1.25
2022-12-04T13:25:19.132Z,1.33
2022-12-04T13:28:22.187Z,1.23
2022-12-04T13:31:41.999Z,1.27
2022-12-04T13:34:33.369Z,1.23
2022-12-04T13:37:38.166Z,1.11
2022-12-04T13:40:42.822Z,1.13
2022-12-04T13:43:50.462Z,1.21
2022-12-04T13:46:41.970Z,1.13
2022-12-04T13:49:32.872Z,1.17
2022-12-04T13:52:37.951Z,1.15
2022-12-04T13:55:32.734Z,1.19
2022-12-04T13:58:17.510Z,1.23
2022-12-04T14:01:06.958Z,1.16
2022-12-04T14:03:54.381Z,1.33
2022-12-04T14:06:43.465Z,1.36
2022-12-04T14:09:35.383Z,1.30
2022-12-04T14:12:26.021Z,1.39
2022-12-04T14:15:23.277Z,1.44
2022-12-04T14:18:11.455Z,1.41
2022-12-04T14:21:05.270Z,1.46
2022-12-04T14:23:52.231Z,1.52
2022-12-04T14:29:58.912Z,1.46
2022-12-04T14:32:44.830Z,1.50
2022-12-04T14:35:30.063Z,1.44
2022-12-04T14:38:20.034Z,1.36
2022-12-04T14:41:05.188Z,1.42
2022-12-04T14:43:50.592Z,1.39
2022-12-04T14:46:44.113Z,1.37
2022-12-04T14:49:35.428Z,1.32
2022-12-04T14:52:38.564Z,1.22
2022-12-04T14:55:40.066Z,1.20
2022-12-04T14:58:33.997Z,1.20
2022-12-04T15:01:30.166Z,1.21
2022-12-04T15:04:21.680Z,1.21
2022-12-04T15:07:06.880Z,1.30
2022-12-04T15:10:01.054Z,1.27
2022-12-04T15:12:53.070Z,1.32
2022-12-04T15:15:45.655Z,1.27
2022-12-04T15:18:33.223Z,1.20
2022-12-04T15:21:21.214Z,1.13
2022-12-04T15:24:15.049Z,1.08
2022-12-04T15:27:00.664Z,1.14
2022-12-04T15:29:46.563Z,1.04
2022-12-04T15:32:32.823Z,1.08
2022-12-04T15:35:29.735Z,1.03
2022-12-04T15:38:15.984Z,1.07
2022-12-04T15:41:01.484Z,1.02
2022-12-04T15:43:46.693Z,0.98
2022-12-04T15:46:35.245Z,1.02
2022-12-04T15:49:26.007Z,0.95
2022-12-04T15:52:17.202Z,0.90
2022-12-04T15:55:06.619Z,0.93
2022-12-04T15:58:04.691Z,0.88
2022-12-04T16:00:56.356Z,0.83
2022-12-04T16:03:41.384Z,0.84
2022-12-04T16:06:30.023Z,0.88
2022-12-04T16:09:23.314Z,0.87
2022-12-04T16:12:23.895Z,0.86
2022-12-04T16:15:09.335Z,0.84
2022-12-04T16:17:54.580Z,0.84
2022-12-04T16:20:40.863Z,0.86
2022-12-04T16:23:26.826Z,0.87
2022-12-04T16:26:13.774Z,0.92
2022-12-04T16:28:59.212Z,0.92
2022-12-04T16:31:44.712Z,0.94
2022-12-04T16:34:30.455Z,0.96
2022-12-04T16:37:21.416Z,1.01
2022-12-04T16:40:07.607Z,1.05
2022-12-04T16:42:52.892Z,0.97
2022-12-04T16:45:37.922Z,1.08
2022-12-04T16:48:23.216Z,1.01
2022-12-04T16:51:20.959Z,1.07
2022-12-04T16:54:06.134Z,0.94
2022-12-04T16:56:51.483Z,0.97
2022-12-04T16:59:37.712Z,0.96
2022-12-04T17:02:26.560Z,0.98
2022-12-04T17:05:26.540Z,0.93
2022-12-04T17:08:11.552Z,1.01
2022-12-04T17:10:57.376Z,0.94
2022-12-04T17:13:43.227Z,0.91
2022-12-04T17:16:28.312Z,0.92
2022-12-04T17:19:14.441Z,0.88
2022-12-04T17:21:59.474Z,0.92
2022-12-04T17:24:50.302Z,0.99
2022-12-04T17:27:39.804Z,0.98
2022-12-04T17:30:25.227Z,0.96
2022-12-04T17:33:10.228Z,0.99
2022-12-04T17:35:56.049Z,0.92
2022-12-04T17:38:41.796Z,0.88
2022-12-04T17:41:27.364Z,0.91
2022-12-04T17:44:12.417Z,0.95
2022-12-04T17:46:57.818Z,0.91
2022-12-04T17:49:43.616Z,0.90
2022-12-04T17:52:29.142Z,0.98
2022-12-04T17:55:14.438Z,0.97
2022-12-04T17:57:59.455Z,0.99
2022-12-04T18:00:44.509Z,1.07
2022-12-04T18:03:29.905Z,1.08
2022-12-04T18:06:18.222Z,1.09
2022-12-04T18:09:04.580Z,1.10
2022-12-04T18:11:49.782Z,1.05
2022-12-04T18:14:35.231Z,1.03
2022-12-04T18:17:21.354Z,1.03
2022-12-04T18:20:07.516Z,1.10
2022-12-04T18:22:53.037Z,1.07
2022-12-04T18:25:37.972Z,1.07
2022-12-04T18:28:22.791Z,0.99
2022-12-04T18:31:08.435Z,0.96
2022-12-04T18:33:53.470Z,1.05
2022-12-04T18:36:39.769Z,1.09
2022-12-04T18:39:26.124Z,1.02
2022-12-04T18:42:11.083Z,1.08
2022-12-04T18:44:55.946Z,1.05
2022-12-04T18:47:41.018Z,1.07
2022-12-04T18:50:25.818Z,1.12
2022-12-04T18:53:10.717Z,1.18
2022-12-04T18:55:56.258Z,1.07
2022-12-04T18:58:41.942Z,1.12
2022-12-04T19:01:28.331Z,1.16
2022-12-04T19:04:14.389Z,1.10
2022-12-04T19:06:59.261Z,1.12
2022-12-04T19:12:49.516Z,1.00
2022-12-04T19:15:34.427Z,0.97
2022-12-04T19:18:19.202Z,1.10
2022-12-04T19:21:08.191Z,1.11
2022-12-04T19:23:58.320Z,1.11
2022-12-04T19:26:44.419Z,1.14
2022-12-04T19:29:29.481Z,1.16
2022-12-04T19:32:15.074Z,1.12
2022-12-04T19:35:00.073Z,1.05
2022-12-04T19:37:51.159Z,1.07
2022-12-04T19:40:37.586Z,1.16
2022-12-04T19:43:23.437Z,1.12
2022-12-04T19:46:11.107Z,1.22
2022-12-04T19:48:58.857Z,1.10
2022-12-04T19:51:43.688Z,1.19
2022-12-04T19:54:29.687Z,1.16
2022-12-04T19:57:14.629Z,1.17
2022-12-04T20:00:00.354Z,1.19
2022-12-04T20:02:45.525Z,1.20
2022-12-04T20:05:30.557Z,1.23
2022-12-04T20:08:15.705Z,1.23
2022-12-04T20:11:05.971Z,1.26
2022-12-04T20:13:51.788Z,1.31
2022-12-04T20:16:37.597Z,1.29
2022-12-04T20:19:22.926Z,1.31
2022-12-04T20:22:07.860Z,1.25
2022-12-04T20:24:52.749Z,1.26
2022-12-04T20:27:38.208Z,1.21
2022-12-04T20:30:23.178Z,1.28
2022-12-04T20:33:08.637Z,1.23
2022-12-04T20:35:53.636Z,1.22
2022-12-04T20:38:41.094Z,1.17
2022-12-04T20:41:28.566Z,1.22
2022-12-04T20:44:16.196Z,1.20
2022-12-04T20:47:01.721Z,1.24
2022-12-04T20:49:46.740Z,1.24
2022-12-04T20:52:33.064Z,1.21
2022-12-04T20:55:18.134Z,1.19
2022-12-04T20:58:03.385Z,1.22
2022-12-04T21:00:48.756Z,1.22
2022-12-04T21:03:33.621Z,1.30
2022-12-04T21:06:35.053Z,1.22
2022-12-04T21:09:24.041Z,1.26
2022-12-04T21:12:09.613Z,1.24
2022-12-04T21:14:54.987Z,1.23
2022-12-04T21:17:40.629Z,1.27
2022-12-04T21:20:25.690Z,1.24
2022-12-04T21:23:10.494Z,1.21
2022-12-04T21:25:55.761Z,1.25
2022-12-04T21:28:40.698Z,1.23
2022-12-04T21:31:26.712Z,1.25
2022-12-04T21:34:14.509Z,1.26
2022-12-04T21:36:59.853Z,1.25
2022-12-04T21:39:44.912Z,1.27
2022-12-04T21:42:30.332Z,1.30
2022-12-04T21:45:15.941Z,1.26
2022-12-04T21:48:00.745Z,1.27
2022-12-04T21:50:45.570Z,1.29
2022-12-04T21:53:30.381Z,1.28
2022-12-04T21:56:15.555Z,1.33
2022-12-04T21:59:01.175Z,1.37
2022-12-04T22:01:46.277Z,1.33
2022-12-04T22:04:31.672Z,1.36
2022-12-04T22:07:16.961Z,1.36
2022-12-04T22:10:07.074Z,1.29
2022-12-04T22:12:55.527Z,1.37
2022-12-04T22:15:42.232Z,1.37
2022-12-04T22:18:27.652Z,1.30
2022-12-04T22:21:15.277Z,1.33
2022-12-04T22:24:02.768Z,1.38
2022-12-04T22:26:47.949Z,1.32
2022-12-04T22:29:49.719Z,1.38
2022-12-04T22:32:35.410Z,1.35
2022-12-04T22:35:20.875Z,1.46
2022-12-04T22:38:06.156Z,1.42
2022-12-04T22:40:50.907Z,1.41
2022-12-04T22:43:40.731Z,1.37
2022-12-04T22:46:26.386Z,1.32
2022-12-04T22:49:11.710Z,1.39
2022-12-04T22:51:56.895Z,1.39
2022-12-04T22:54:42.087Z,1.38
2022-12-04T22:57:26.861Z,1.42
2022-12-04T23:00:12.136Z,1.42
2022-12-04T23:02:57.486Z,1.44
2022-12-04T23:05:43.025Z,1.51
2022-12-04T23:08:28.389Z,1.53
2022-12-04T23:11:21.068Z,1.50
2022-12-04T23:14:08.530Z,1.44
2022-12-04T23:16:53.758Z,1.49
2022-12-04T23:19:39.256Z,1.42
2022-12-04T23:22:24.588Z,1.53
2022-12-04T23:25:09.837Z,1.50
2022-12-04T23:27:55.010Z,1.48
2022-12-04T23:30:45.402Z,1.54
2022-12-04T23:33:31.029Z,1.57
2022-12-04T23:36:16.863Z,1.60
2022-12-04T23:39:02.623Z,1.51
2022-12-04T23:41:47.728Z,1.52
2022-12-04T23:44:32.895Z,1.58
2022-12-04T23:47:17.772Z,1.59
2022-12-04T23:50:03.355Z,1.52
2022-12-04T23:52:48.725Z,1.55
2022-12-04T23:55:34.665Z,1.54
2022-12-04T23:58:20.136Z,1.57
